HTIR/IRI METAR and TAF weather

Enter ICAO airport designator
Station Type Date Time Source
HTIR METAR 2019/10/15 19:00 UTC NOAA

HTIR 151900Z 13011KT 9999 SKC 21/12 Q1019


Station Type Date Time Source
HTIR Decoded METAR 2019/10/15 19:00 UTC NOAA

Iringa, Tanzania (HTIR) 07-40S 035-45E 1428M
Oct 15, 2019 - 03:00 PM EDT / 2019.10.15 1900 UTC
Wind: from the SE (130 degrees) at 13 MPH (11 KT):0
Visibility: greater than 7 mile(s):0
Sky conditions: clear
Temperature: 69 F (21 C)
Dew Point: 53 F (12 C)
Relative Humidity: 56%
Pressure (altimeter): 30.09 in. Hg (1019 hPa)
ob: HTIR 151900Z 13011KT 9999 SKC 21/12 Q1019
cycle: 19

Station Type Date Time Source
HTIR TAF UTC NOAA

Error!

Example: see airport list